sensor_id;sensor_type;location;lat;lon;timestamp;P1;durP1;ratioP1;P2;durP2;ratioP2
26936;SDS011;14495;48.116;11.676;2022-07-23T00:00:14;9.77;;;6.07;;
26936;SDS011;14495;48.116;11.676;2022-07-23T00:02:40;6.40;;;5.75;;
26936;SDS011;14495;48.116;11.676;2022-07-23T00:05:05;10.55;;;6.03;;
26936;SDS011;14495;48.116;11.676;2022-07-23T00:07:31;8.73;;;5.65;;
26936;SDS011;14495;48.116;11.676;2022-07-23T00:09:56;6.10;;;5.43;;
26936;SDS011;14495;48.116;11.676;2022-07-23T00:12:22;8.13;;;6.07;;
26936;SDS011;14495;48.116;11.676;2022-07-23T00:14:47;6.50;;;5.75;;
26936;SDS011;14495;48.116;11.676;2022-07-23T00:17:12;8.43;;;5.90;;
26936;SDS011;14495;48.116;11.676;2022-07-23T00:19:38;7.80;;;6.18;;
26936;SDS011;14495;48.116;11.676;2022-07-23T00:22:03;7.32;;;6.07;;
26936;SDS011;14495;48.116;11.676;2022-07-23T00:24:28;6.70;;;5.35;;
26936;SDS011;14495;48.116;11.676;2022-07-23T00:26:54;8.00;;;6.20;;
26936;SDS011;14495;48.116;11.676;2022-07-23T00:29:19;7.75;;;6.07;;
26936;SDS011;14495;48.116;11.676;2022-07-23T00:31:45;6.70;;;5.25;;
26936;SDS011;14495;48.116;11.676;2022-07-23T00:34:10;7.95;;;5.50;;
26936;SDS011;14495;48.116;11.676;2022-07-23T00:36:35;7.63;;;5.47;;
26936;SDS011;14495;48.116;11.676;2022-07-23T00:39:01;6.85;;;5.45;;
26936;SDS011;14495;48.116;11.676;2022-07-23T00:41:26;7.38;;;5.80;;
26936;SDS011;14495;48.116;11.676;2022-07-23T00:43:52;7.07;;;5.40;;
26936;SDS011;14495;48.116;11.676;2022-07-23T00:46:20;6.95;;;5.63;;
26936;SDS011;14495;48.116;11.676;2022-07-23T00:48:46;7.18;;;5.40;;
26936;SDS011;14495;48.116;11.676;2022-07-23T00:51:11;7.32;;;5.07;;
26936;SDS011;14495;48.116;11.676;2022-07-23T00:53:36;8.18;;;5.60;;
26936;SDS011;14495;48.116;11.676;2022-07-23T00:56:02;7.72;;;5.00;;
26936;SDS011;14495;48.116;11.676;2022-07-23T00:58:27;5.95;;;5.20;;
26936;SDS011;14495;48.116;11.676;2022-07-23T01:00:53;9.02;;;5.15;;
26936;SDS011;14495;48.116;11.676;2022-07-23T01:03:18;7.50;;;4.95;;
26936;SDS011;14495;48.116;11.676;2022-07-23T01:05:44;8.45;;;5.50;;
26936;SDS011;14495;48.116;11.676;2022-07-23T01:08:10;8.75;;;5.20;;
26936;SDS011;14495;48.116;11.676;2022-07-23T01:10:36;7.03;;;5.85;;
26936;SDS011;14495;48.116;11.676;2022-07-23T01:13:02;8.68;;;5.90;;
26936;SDS011;14495;48.116;11.676;2022-07-23T01:15:30;6.30;;;5.55;;
26936;SDS011;14495;48.116;11.676;2022-07-23T01:17:56;6.63;;;5.47;;
26936;SDS011;14495;48.116;11.676;2022-07-23T01:20:21;10.57;;;6.03;;
26936;SDS011;14495;48.116;11.676;2022-07-23T01:22:47;14.68;;;5.88;;
26936;SDS011;14495;48.116;11.676;2022-07-23T01:25:13;9.80;;;6.13;;
26936;SDS011;14495;48.116;11.676;2022-07-23T01:27:38;9.40;;;6.72;;
26936;SDS011;14495;48.116;11.676;2022-07-23T01:30:04;10.93;;;6.75;;
26936;SDS011;14495;48.116;11.676;2022-07-23T01:32:30;11.20;;;6.75;;
26936;SDS011;14495;48.116;11.676;2022-07-23T01:34:56;12.02;;;6.55;;
26936;SDS011;14495;48.116;11.676;2022-07-23T01:37:21;13.20;;;6.60;;
26936;SDS011;14495;48.116;11.676;2022-07-23T01:39:46;18.73;;;6.70;;
26936;SDS011;14495;48.116;11.676;2022-07-23T01:42:12;15.40;;;7.60;;
26936;SDS011;14495;48.116;11.676;2022-07-23T01:44:37;16.20;;;5.07;;
26936;SDS011;14495;48.116;11.676;2022-07-23T01:47:02;11.63;;;4.85;;
26936;SDS011;14495;48.116;11.676;2022-07-23T01:49:28;8.15;;;3.53;;
26936;SDS011;14495;48.116;11.676;2022-07-23T01:51:53;13.70;;;3.17;;
26936;SDS011;14495;48.116;11.676;2022-07-23T01:54:31;6.45;;;3.30;;
26936;SDS011;14495;48.116;11.676;2022-07-23T01:56:59;17.33;;;3.42;;
26936;SDS011;14495;48.116;11.676;2022-07-23T01:59:24;4.35;;;3.22;;
26936;SDS011;14495;48.116;11.676;2022-07-23T02:01:50;4.68;;;3.38;;
26936;SDS011;14495;48.116;11.676;2022-07-23T02:04:17;3.83;;;3.10;;
26936;SDS011;14495;48.116;11.676;2022-07-23T02:06:43;4.88;;;3.47;;
26936;SDS011;14495;48.116;11.676;2022-07-23T02:09:08;4.18;;;3.25;;
26936;SDS011;14495;48.116;11.676;2022-07-23T02:11:34;4.82;;;3.20;;
26936;SDS011;14495;48.116;11.676;2022-07-23T02:13:59;4.55;;;3.00;;
26936;SDS011;14495;48.116;11.676;2022-07-23T02:16:24;5.30;;;3.63;;
26936;SDS011;14495;48.116;11.676;2022-07-23T02:18:50;5.35;;;3.72;;
26936;SDS011;14495;48.116;11.676;2022-07-23T02:21:15;5.97;;;3.60;;
26936;SDS011;14495;48.116;11.676;2022-07-23T02:23:41;4.82;;;3.47;;
26936;SDS011;14495;48.116;11.676;2022-07-23T02:26:06;3.90;;;3.50;;
26936;SDS011;14495;48.116;11.676;2022-07-23T02:28:31;5.85;;;3.30;;
26936;SDS011;14495;48.116;11.676;2022-07-23T02:30:57;5.32;;;3.00;;
26936;SDS011;14495;48.116;11.676;2022-07-23T02:33:22;5.13;;;3.20;;
26936;SDS011;14495;48.116;11.676;2022-07-23T02:35:47;4.03;;;2.90;;
26936;SDS011;14495;48.116;11.676;2022-07-23T02:38:13;3.17;;;2.75;;
26936;SDS011;14495;48.116;11.676;2022-07-23T02:40:38;6.00;;;2.47;;
26936;SDS011;14495;48.116;11.676;2022-07-23T02:43:04;4.70;;;2.83;;
26936;SDS011;14495;48.116;11.676;2022-07-23T02:45:29;9.88;;;2.70;;
26936;SDS011;14495;48.116;11.676;2022-07-23T02:47:54;2.95;;;2.58;;
26936;SDS011;14495;48.116;11.676;2022-07-23T02:50:20;4.22;;;2.70;;
26936;SDS011;14495;48.116;11.676;2022-07-23T02:52:45;4.28;;;2.80;;
26936;SDS011;14495;48.116;11.676;2022-07-23T02:55:10;5.07;;;2.78;;
26936;SDS011;14495;48.116;11.676;2022-07-23T02:57:36;3.10;;;2.67;;
26936;SDS011;14495;48.116;11.676;2022-07-23T03:00:03;4.50;;;2.70;;
26936;SDS011;14495;48.116;11.676;2022-07-23T03:02:29;4.10;;;2.85;;
26936;SDS011;14495;48.116;11.676;2022-07-23T03:04:54;3.40;;;2.53;;
26936;SDS011;14495;48.116;11.676;2022-07-23T03:07:20;7.07;;;3.67;;
26936;SDS011;14495;48.116;11.676;2022-07-23T03:09:45;7.93;;;4.32;;
26936;SDS011;14495;48.116;11.676;2022-07-23T03:12:10;10.48;;;4.43;;
26936;SDS011;14495;48.116;11.676;2022-07-23T03:14:36;6.68;;;4.00;;
26936;SDS011;14495;48.116;11.676;2022-07-23T03:17:01;6.00;;;3.95;;
26936;SDS011;14495;48.116;11.676;2022-07-23T03:19:26;6.95;;;4.13;;
26936;SDS011;14495;48.116;11.676;2022-07-23T03:21:52;6.18;;;4.18;;
26936;SDS011;14495;48.116;11.676;2022-07-23T03:24:17;7.25;;;4.28;;
26936;SDS011;14495;48.116;11.676;2022-07-23T03:26:43;6.63;;;4.35;;
26936;SDS011;14495;48.116;11.676;2022-07-23T03:29:09;6.72;;;4.90;;
26936;SDS011;14495;48.116;11.676;2022-07-23T03:31:34;8.38;;;4.82;;
26936;SDS011;14495;48.116;11.676;2022-07-23T03:34:00;5.88;;;4.85;;
26936;SDS011;14495;48.116;11.676;2022-07-23T03:36:25;8.10;;;4.40;;
26936;SDS011;14495;48.116;11.676;2022-07-23T03:38:51;6.40;;;5.00;;
26936;SDS011;14495;48.116;11.676;2022-07-23T03:41:17;6.22;;;5.05;;
26936;SDS011;14495;48.116;11.676;2022-07-23T03:43:43;5.25;;;4.75;;
26936;SDS011;14495;48.116;11.676;2022-07-23T03:46:08;6.47;;;5.00;;
26936;SDS011;14495;48.116;11.676;2022-07-23T03:48:34;7.63;;;5.53;;
26936;SDS011;14495;48.116;11.676;2022-07-23T03:51:00;5.50;;;5.00;;
26936;SDS011;14495;48.116;11.676;2022-07-23T03:53:25;5.70;;;4.80;;
26936;SDS011;14495;48.116;11.676;2022-07-23T03:55:50;7.80;;;5.43;;
26936;SDS011;14495;48.116;11.676;2022-07-23T03:58:16;7.82;;;5.28;;
26936;SDS011;14495;48.116;11.676;2022-07-23T04:00:41;6.07;;;5.03;;
26936;SDS011;14495;48.116;11.676;2022-07-23T04:03:06;6.05;;;4.78;;
26936;SDS011;14495;48.116;11.676;2022-07-23T04:05:32;9.23;;;5.38;;
26936;SDS011;14495;48.116;11.676;2022-07-23T04:07:57;6.75;;;5.95;;
26936;SDS011;14495;48.116;11.676;2022-07-23T04:10:22;7.22;;;6.18;;
26936;SDS011;14495;48.116;11.676;2022-07-23T04:12:47;7.18;;;5.90;;
26936;SDS011;14495;48.116;11.676;2022-07-23T04:15:13;9.75;;;6.32;;
26936;SDS011;14495;48.116;11.676;2022-07-23T04:17:38;9.63;;;6.95;;
26936;SDS011;14495;48.116;11.676;2022-07-23T04:20:03;6.82;;;6.15;;
26936;SDS011;14495;48.116;11.676;2022-07-23T04:22:29;6.32;;;5.70;;
26936;SDS011;14495;48.116;11.676;2022-07-23T04:24:55;11.07;;;6.75;;
26936;SDS011;14495;48.116;11.676;2022-07-23T04:27:20;7.65;;;6.20;;
26936;SDS011;14495;48.116;11.676;2022-07-23T04:29:45;8.35;;;6.25;;
26936;SDS011;14495;48.116;11.676;2022-07-23T04:32:11;7.43;;;5.97;;
26936;SDS011;14495;48.116;11.676;2022-07-23T04:34:36;6.93;;;6.22;;
26936;SDS011;14495;48.116;11.676;2022-07-23T04:37:01;6.75;;;6.03;;
26936;SDS011;14495;48.116;11.676;2022-07-23T04:39:26;6.85;;;5.75;;
26936;SDS011;14495;48.116;11.676;2022-07-23T04:41:52;6.60;;;5.72;;
26936;SDS011;14495;48.116;11.676;2022-07-23T04:44:17;6.22;;;5.45;;
26936;SDS011;14495;48.116;11.676;2022-07-23T04:46:42;6.13;;;5.45;;
26936;SDS011;14495;48.116;11.676;2022-07-23T04:49:08;7.53;;;5.70;;
26936;SDS011;14495;48.116;11.676;2022-07-23T04:51:33;10.77;;;6.75;;
26936;SDS011;14495;48.116;11.676;2022-07-23T04:53:58;9.38;;;6.45;;
26936;SDS011;14495;48.116;11.676;2022-07-23T04:56:24;9.40;;;6.82;;
26936;SDS011;14495;48.116;11.676;2022-07-23T04:58:49;6.70;;;5.65;;
26936;SDS011;14495;48.116;11.676;2022-07-23T05:01:14;8.05;;;5.85;;
26936;SDS011;14495;48.116;11.676;2022-07-23T05:03:40;7.72;;;5.85;;
26936;SDS011;14495;48.116;11.676;2022-07-23T05:06:05;7.07;;;5.72;;
26936;SDS011;14495;48.116;11.676;2022-07-23T05:08:30;8.27;;;6.13;;
26936;SDS011;14495;48.116;11.676;2022-07-23T05:10:56;9.35;;;6.65;;
26936;SDS011;14495;48.116;11.676;2022-07-23T05:13:21;8.05;;;5.97;;
26936;SDS011;14495;48.116;11.676;2022-07-23T05:15:47;6.85;;;5.60;;
26936;SDS011;14495;48.116;11.676;2022-07-23T05:18:12;7.20;;;6.20;;
26936;SDS011;14495;48.116;11.676;2022-07-23T05:20:38;10.27;;;6.78;;
26936;SDS011;14495;48.116;11.676;2022-07-23T05:23:03;9.27;;;5.90;;
26936;SDS011;14495;48.116;11.676;2022-07-23T05:25:29;6.90;;;5.65;;
26936;SDS011;14495;48.116;11.676;2022-07-23T05:27:54;8.13;;;6.07;;
26936;SDS011;14495;48.116;11.676;2022-07-23T05:30:20;6.78;;;6.07;;
26936;SDS011;14495;48.116;11.676;2022-07-23T05:32:45;7.18;;;5.63;;
26936;SDS011;14495;48.116;11.676;2022-07-23T05:35:11;7.70;;;5.88;;
26936;SDS011;14495;48.116;11.676;2022-07-23T05:37:36;9.55;;;5.93;;
26936;SDS011;14495;48.116;11.676;2022-07-23T05:40:05;7.50;;;6.03;;
26936;SDS011;14495;48.116;11.676;2022-07-23T05:42:36;7.38;;;6.00;;
26936;SDS011;14495;48.116;11.676;2022-07-23T05:45:02;7.53;;;5.55;;
26936;SDS011;14495;48.116;11.676;2022-07-23T05:47:28;7.28;;;5.75;;
26936;SDS011;14495;48.116;11.676;2022-07-23T05:49:54;8.13;;;6.10;;
26936;SDS011;14495;48.116;11.676;2022-07-23T05:52:19;6.43;;;5.63;;
26936;SDS011;14495;48.116;11.676;2022-07-23T05:54:45;15.50;;;5.93;;
26936;SDS011;14495;48.116;11.676;2022-07-23T05:57:10;10.38;;;6.15;;
26936;SDS011;14495;48.116;11.676;2022-07-23T05:59:35;6.68;;;6.00;;
26936;SDS011;14495;48.116;11.676;2022-07-23T06:02:00;13.25;;;6.45;;
26936;SDS011;14495;48.116;11.676;2022-07-23T06:04:26;8.05;;;5.65;;
26936;SDS011;14495;48.116;11.676;2022-07-23T06:06:51;14.20;;;6.43;;
26936;SDS011;14495;48.116;11.676;2022-07-23T06:09:17;11.07;;;6.40;;
26936;SDS011;14495;48.116;11.676;2022-07-23T06:11:43;14.90;;;6.70;;
26936;SDS011;14495;48.116;11.676;2022-07-23T06:14:08;10.90;;;7.20;;
26936;SDS011;14495;48.116;11.676;2022-07-23T06:16:34;7.72;;;6.53;;
26936;SDS011;14495;48.116;11.676;2022-07-23T06:18:59;12.88;;;6.70;;
26936;SDS011;14495;48.116;11.676;2022-07-23T06:21:24;9.55;;;6.22;;
26936;SDS011;14495;48.116;11.676;2022-07-23T06:23:50;11.65;;;7.28;;
26936;SDS011;14495;48.116;11.676;2022-07-23T06:26:15;8.02;;;6.65;;
26936;SDS011;14495;48.116;11.676;2022-07-23T06:28:41;10.77;;;7.07;;
26936;SDS011;14495;48.116;11.676;2022-07-23T06:31:06;10.88;;;7.22;;
26936;SDS011;14495;48.116;11.676;2022-07-23T06:33:31;11.15;;;7.38;;
26936;SDS011;14495;48.116;11.676;2022-07-23T06:35:57;12.60;;;7.55;;
26936;SDS011;14495;48.116;11.676;2022-07-23T06:38:22;7.57;;;6.80;;
26936;SDS011;14495;48.116;11.676;2022-07-23T06:40:47;8.48;;;7.30;;
26936;SDS011;14495;48.116;11.676;2022-07-23T06:43:13;7.88;;;6.97;;
26936;SDS011;14495;48.116;11.676;2022-07-23T06:45:38;8.40;;;6.53;;
26936;SDS011;14495;48.116;11.676;2022-07-23T06:48:03;7.60;;;6.63;;
26936;SDS011;14495;48.116;11.676;2022-07-23T06:50:29;8.35;;;6.70;;
26936;SDS011;14495;48.116;11.676;2022-07-23T06:52:54;8.27;;;7.22;;
26936;SDS011;14495;48.116;11.676;2022-07-23T06:55:20;13.38;;;7.25;;
26936;SDS011;14495;48.116;11.676;2022-07-23T06:57:45;8.70;;;6.40;;
26936;SDS011;14495;48.116;11.676;2022-07-23T07:00:10;8.98;;;6.20;;
26936;SDS011;14495;48.116;11.676;2022-07-23T07:02:36;9.75;;;6.72;;
26936;SDS011;14495;48.116;11.676;2022-07-23T07:05:02;8.52;;;6.72;;
26936;SDS011;14495;48.116;11.676;2022-07-23T07:07:27;10.20;;;7.45;;
26936;SDS011;14495;48.116;11.676;2022-07-23T07:09:53;7.53;;;6.57;;
26936;SDS011;14495;48.116;11.676;2022-07-23T07:12:18;8.55;;;6.00;;
26936;SDS011;14495;48.116;11.676;2022-07-23T07:14:43;7.63;;;5.82;;
26936;SDS011;14495;48.116;11.676;2022-07-23T07:17:09;7.72;;;6.07;;
26936;SDS011;14495;48.116;11.676;2022-07-23T07:19:35;6.75;;;5.78;;
26936;SDS011;14495;48.116;11.676;2022-07-23T07:22:01;7.45;;;6.32;;
26936;SDS011;14495;48.116;11.676;2022-07-23T07:24:27;6.93;;;6.13;;
26936;SDS011;14495;48.116;11.676;2022-07-23T07:26:52;10.55;;;6.47;;
26936;SDS011;14495;48.116;11.676;2022-07-23T07:29:17;7.57;;;5.80;;
26936;SDS011;14495;48.116;11.676;2022-07-23T07:31:43;5.88;;;5.30;;
26936;SDS011;14495;48.116;11.676;2022-07-23T07:34:08;8.30;;;5.97;;
26936;SDS011;14495;48.116;11.676;2022-07-23T07:36:33;7.88;;;6.30;;
26936;SDS011;14495;48.116;11.676;2022-07-23T07:39:02;7.90;;;6.47;;
26936;SDS011;14495;48.116;11.676;2022-07-23T07:41:28;9.93;;;6.10;;
26936;SDS011;14495;48.116;11.676;2022-07-23T07:43:53;9.38;;;5.68;;
26936;SDS011;14495;48.116;11.676;2022-07-23T07:46:19;9.63;;;6.50;;
26936;SDS011;14495;48.116;11.676;2022-07-23T07:48:44;8.18;;;6.00;;
26936;SDS011;14495;48.116;11.676;2022-07-23T07:51:09;8.93;;;6.63;;
26936;SDS011;14495;48.116;11.676;2022-07-23T07:53:34;8.30;;;6.80;;
26936;SDS011;14495;48.116;11.676;2022-07-23T07:56:00;8.40;;;6.28;;
26936;SDS011;14495;48.116;11.676;2022-07-23T07:58:26;7.90;;;6.28;;
26936;SDS011;14495;48.116;11.676;2022-07-23T08:00:52;7.32;;;6.07;;
26936;SDS011;14495;48.116;11.676;2022-07-23T08:03:17;7.13;;;6.18;;
26936;SDS011;14495;48.116;11.676;2022-07-23T08:05:42;11.25;;;6.65;;
26936;SDS011;14495;48.116;11.676;2022-07-23T08:08:08;7.43;;;6.60;;
26936;SDS011;14495;48.116;11.676;2022-07-23T08:10:34;9.07;;;7.10;;
26936;SDS011;14495;48.116;11.676;2022-07-23T08:13:00;7.72;;;6.07;;
26936;SDS011;14495;48.116;11.676;2022-07-23T08:15:26;12.63;;;7.22;;
26936;SDS011;14495;48.116;11.676;2022-07-23T08:17:53;9.68;;;6.28;;
26936;SDS011;14495;48.116;11.676;2022-07-23T08:20:19;9.20;;;6.50;;
26936;SDS011;14495;48.116;11.676;2022-07-23T08:22:52;13.43;;;6.40;;
26936;SDS011;14495;48.116;11.676;2022-07-23T08:25:20;8.30;;;6.30;;
26936;SDS011;14495;48.116;11.676;2022-07-23T08:27:47;8.73;;;6.68;;
26936;SDS011;14495;48.116;11.676;2022-07-23T08:30:14;8.13;;;6.13;;
26936;SDS011;14495;48.116;11.676;2022-07-23T08:35:29;8.07;;;6.78;;
26936;SDS011;14495;48.116;11.676;2022-07-23T08:38:04;11.77;;;6.50;;
26936;SDS011;14495;48.116;11.676;2022-07-23T08:40:31;8.38;;;6.40;;
26936;SDS011;14495;48.116;11.676;2022-07-23T08:42:58;8.60;;;6.00;;
26936;SDS011;14495;48.116;11.676;2022-07-23T08:45:25;10.75;;;6.45;;
26936;SDS011;14495;48.116;11.676;2022-07-23T08:47:52;7.35;;;6.22;;
26936;SDS011;14495;48.116;11.676;2022-07-23T08:50:20;9.20;;;6.00;;
26936;SDS011;14495;48.116;11.676;2022-07-23T08:52:46;11.60;;;6.05;;
26936;SDS011;14495;48.116;11.676;2022-07-23T08:55:13;9.38;;;6.40;;
26936;SDS011;14495;48.116;11.676;2022-07-23T08:57:45;8.45;;;6.07;;
26936;SDS011;14495;48.116;11.676;2022-07-23T09:00:13;10.35;;;6.60;;
26936;SDS011;14495;48.116;11.676;2022-07-23T09:02:40;8.02;;;6.30;;
26936;SDS011;14495;48.116;11.676;2022-07-23T09:05:08;7.72;;;6.13;;
26936;SDS011;14495;48.116;11.676;2022-07-23T09:07:36;8.32;;;5.80;;
26936;SDS011;14495;48.116;11.676;2022-07-23T09:10:08;8.57;;;5.50;;
26936;SDS011;14495;48.116;11.676;2022-07-23T09:12:36;6.65;;;5.95;;
26936;SDS011;14495;48.116;11.676;2022-07-23T09:15:04;6.57;;;5.72;;
26936;SDS011;14495;48.116;11.676;2022-07-23T09:17:36;8.15;;;5.70;;
26936;SDS011;14495;48.116;11.676;2022-07-23T09:20:13;8.77;;;5.97;;
26936;SDS011;14495;48.116;11.676;2022-07-23T09:22:44;9.77;;;6.07;;
26936;SDS011;14495;48.116;11.676;2022-07-23T09:25:12;8.98;;;6.00;;
26936;SDS011;14495;48.116;11.676;2022-07-23T09:30:21;6.72;;;5.50;;
26936;SDS011;14495;48.116;11.676;2022-07-23T09:33:23;7.60;;;6.35;;
26936;SDS011;14495;48.116;11.676;2022-07-23T09:35:48;6.90;;;5.90;;
26936;SDS011;14495;48.116;11.676;2022-07-23T09:38:19;7.03;;;5.65;;
26936;SDS011;14495;48.116;11.676;2022-07-23T09:40:46;6.07;;;5.47;;
26936;SDS011;14495;48.116;11.676;2022-07-23T09:43:12;7.28;;;5.25;;
26936;SDS011;14495;48.116;11.676;2022-07-23T09:45:50;5.20;;;4.63;;
26936;SDS011;14495;48.116;11.676;2022-07-23T09:48:16;7.60;;;5.53;;
26936;SDS011;14495;48.116;11.676;2022-07-23T09:50:42;6.13;;;5.18;;
26936;SDS011;14495;48.116;11.676;2022-07-23T09:53:08;7.13;;;5.30;;
26936;SDS011;14495;48.116;11.676;2022-07-23T09:55:36;5.82;;;5.10;;
26936;SDS011;14495;48.116;11.676;2022-07-23T09:58:07;7.82;;;5.28;;
26936;SDS011;14495;48.116;11.676;2022-07-23T10:00:39;6.30;;;4.97;;
26936;SDS011;14495;48.116;11.676;2022-07-23T10:03:06;5.53;;;4.55;;
26936;SDS011;14495;48.116;11.676;2022-07-23T10:05:31;5.63;;;5.03;;
26936;SDS011;14495;48.116;11.676;2022-07-23T10:07:59;7.65;;;4.90;;
26936;SDS011;14495;48.116;11.676;2022-07-23T10:10:27;5.35;;;4.68;;
26936;SDS011;14495;48.116;11.676;2022-07-23T10:12:54;7.40;;;4.75;;
26936;SDS011;14495;48.116;11.676;2022-07-23T10:15:22;6.93;;;5.22;;
26936;SDS011;14495;48.116;11.676;2022-07-23T10:17:48;5.78;;;4.57;;
26936;SDS011;14495;48.116;11.676;2022-07-23T10:20:13;4.95;;;4.43;;
26936;SDS011;14495;48.116;11.676;2022-07-23T10:22:44;7.60;;;4.60;;
26936;SDS011;14495;48.116;11.676;2022-07-23T10:25:36;9.30;;;4.65;;
26936;SDS011;14495;48.116;11.676;2022-07-23T10:31:01;8.98;;;4.88;;
26936;SDS011;14495;48.116;11.676;2022-07-23T10:36:41;5.38;;;4.20;;
26936;SDS011;14495;48.116;11.676;2022-07-23T10:39:30;6.68;;;4.63;;
26936;SDS011;14495;48.116;11.676;2022-07-23T10:42:14;6.47;;;4.25;;
26936;SDS011;14495;48.116;11.676;2022-07-23T10:44:41;6.40;;;4.97;;
26936;SDS011;14495;48.116;11.676;2022-07-23T10:47:11;7.25;;;4.47;;
26936;SDS011;14495;48.116;11.676;2022-07-23T10:57:59;6.03;;;4.45;;
26936;SDS011;14495;48.116;11.676;2022-07-23T11:00:29;6.72;;;4.45;;
26936;SDS011;14495;48.116;11.676;2022-07-23T11:03:00;6.60;;;4.22;;
26936;SDS011;14495;48.116;11.676;2022-07-23T11:05:41;6.82;;;4.15;;
26936;SDS011;14495;48.116;11.676;2022-07-23T11:10:46;4.82;;;3.97;;
26936;SDS011;14495;48.116;11.676;2022-07-23T11:13:56;5.35;;;4.18;;
26936;SDS011;14495;48.116;11.676;2022-07-23T11:16:05;6.32;;;4.60;;
26936;SDS011;14495;48.116;11.676;2022-07-23T11:34:32;5.82;;;4.70;;
26936;SDS011;14495;48.116;11.676;2022-07-23T11:37:06;12.23;;;5.47;;
26936;SDS011;14495;48.116;11.676;2022-07-23T11:39:34;9.93;;;5.03;;
26936;SDS011;14495;48.116;11.676;2022-07-23T11:42:00;10.02;;;4.50;;
26936;SDS011;14495;48.116;11.676;2022-07-23T11:44:30;6.63;;;4.53;;
26936;SDS011;14495;48.116;11.676;2022-07-23T11:47:02;4.85;;;4.35;;
26936;SDS011;14495;48.116;11.676;2022-07-23T11:49:29;10.27;;;4.93;;
26936;SDS011;14495;48.116;11.676;2022-07-23T11:52:13;10.77;;;4.80;;
26936;SDS011;14495;48.116;11.676;2022-07-23T11:54:49;9.50;;;5.10;;
26936;SDS011;14495;48.116;11.676;2022-07-23T11:57:15;6.38;;;4.43;;
26936;SDS011;14495;48.116;11.676;2022-07-23T11:59:42;6.03;;;4.60;;
26936;SDS011;14495;48.116;11.676;2022-07-23T12:02:08;6.60;;;4.70;;
26936;SDS011;14495;48.116;11.676;2022-07-23T12:07:03;7.30;;;5.13;;
26936;SDS011;14495;48.116;11.676;2022-07-23T12:09:29;11.52;;;6.82;;
26936;SDS011;14495;48.116;11.676;2022-07-23T12:12:00;7.65;;;5.28;;
26936;SDS011;14495;48.116;11.676;2022-07-23T12:14:26;8.05;;;5.55;;
26936;SDS011;14495;48.116;11.676;2022-07-23T12:17:07;8.60;;;5.53;;
26936;SDS011;14495;48.116;11.676;2022-07-23T12:19:36;10.23;;;5.10;;
26936;SDS011;14495;48.116;11.676;2022-07-23T12:22:01;10.23;;;5.68;;
26936;SDS011;14495;48.116;11.676;2022-07-23T12:24:27;11.57;;;5.60;;
26936;SDS011;14495;48.116;11.676;2022-07-23T12:27:08;8.77;;;5.20;;
26936;SDS011;14495;48.116;11.676;2022-07-23T12:29:36;6.63;;;5.43;;
26936;SDS011;14495;48.116;11.676;2022-07-23T12:32:02;12.48;;;6.85;;
26936;SDS011;14495;48.116;11.676;2022-07-23T12:35:01;7.45;;;5.28;;
26936;SDS011;14495;48.116;11.676;2022-07-23T12:37:36;7.60;;;5.40;;
26936;SDS011;14495;48.116;11.676;2022-07-23T12:42:53;7.13;;;5.35;;
26936;SDS011;14495;48.116;11.676;2022-07-23T12:45:20;7.45;;;5.28;;
26936;SDS011;14495;48.116;11.676;2022-07-23T12:47:56;7.30;;;5.15;;
26936;SDS011;14495;48.116;11.676;2022-07-23T12:55:56;7.95;;;5.38;;
26936;SDS011;14495;48.116;11.676;2022-07-23T12:58:26;5.65;;;4.68;;
26936;SDS011;14495;48.116;11.676;2022-07-23T13:00:52;9.15;;;6.82;;
26936;SDS011;14495;48.116;11.676;2022-07-23T13:05:59;7.82;;;5.32;;
26936;SDS011;14495;48.116;11.676;2022-07-23T13:08:27;10.05;;;5.45;;
26936;SDS011;14495;48.116;11.676;2022-07-23T13:10:53;7.60;;;5.35;;
26936;SDS011;14495;48.116;11.676;2022-07-23T13:13:23;9.75;;;5.15;;
26936;SDS011;14495;48.116;11.676;2022-07-23T13:15:50;7.70;;;5.50;;
26936;SDS011;14495;48.116;11.676;2022-07-23T13:18:16;5.95;;;4.65;;
26936;SDS011;14495;48.116;11.676;2022-07-23T13:20:42;7.55;;;5.43;;
26936;SDS011;14495;48.116;11.676;2022-07-23T13:23:12;6.97;;;5.53;;
26936;SDS011;14495;48.116;11.676;2022-07-23T13:25:38;7.88;;;5.32;;
26936;SDS011;14495;48.116;11.676;2022-07-23T13:28:03;7.80;;;5.03;;
26936;SDS011;14495;48.116;11.676;2022-07-23T13:30:29;5.88;;;5.10;;
26936;SDS011;14495;48.116;11.676;2022-07-23T13:32:55;6.60;;;5.00;;
26936;SDS011;14495;48.116;11.676;2022-07-23T13:35:20;6.75;;;5.78;;
26936;SDS011;14495;48.116;11.676;2022-07-23T13:37:46;9.73;;;4.95;;
26936;SDS011;14495;48.116;11.676;2022-07-23T13:40:11;7.65;;;5.18;;
26936;SDS011;14495;48.116;11.676;2022-07-23T13:42:37;6.70;;;5.53;;
26936;SDS011;14495;48.116;11.676;2022-07-23T13:45:06;7.40;;;5.78;;
26936;SDS011;14495;48.116;11.676;2022-07-23T13:47:32;5.70;;;5.20;;
26936;SDS011;14495;48.116;11.676;2022-07-23T13:49:57;6.47;;;5.18;;
26936;SDS011;14495;48.116;11.676;2022-07-23T13:52:23;10.93;;;5.50;;
26936;SDS011;14495;48.116;11.676;2022-07-23T13:54:49;6.75;;;5.45;;
26936;SDS011;14495;48.116;11.676;2022-07-23T13:57:14;7.93;;;5.30;;
26936;SDS011;14495;48.116;11.676;2022-07-23T13:59:40;8.00;;;5.20;;
26936;SDS011;14495;48.116;11.676;2022-07-23T14:02:05;6.18;;;5.10;;
26936;SDS011;14495;48.116;11.676;2022-07-23T14:04:31;9.40;;;5.65;;
26936;SDS011;14495;48.116;11.676;2022-07-23T14:06:57;7.85;;;6.10;;
26936;SDS011;14495;48.116;11.676;2022-07-23T14:09:22;6.93;;;4.95;;
26936;SDS011;14495;48.116;11.676;2022-07-23T14:11:48;5.10;;;4.50;;
26936;SDS011;14495;48.116;11.676;2022-07-23T14:14:15;5.90;;;5.30;;
26936;SDS011;14495;48.116;11.676;2022-07-23T14:16:41;9.82;;;5.32;;
26936;SDS011;14495;48.116;11.676;2022-07-23T14:19:07;7.93;;;5.13;;
26936;SDS011;14495;48.116;11.676;2022-07-23T14:21:32;6.38;;;5.03;;
26936;SDS011;14495;48.116;11.676;2022-07-23T14:23:58;6.18;;;4.90;;
26936;SDS011;14495;48.116;11.676;2022-07-23T14:26:23;7.88;;;5.25;;
26936;SDS011;14495;48.116;11.676;2022-07-23T14:28:48;7.57;;;5.35;;
26936;SDS011;14495;48.116;11.676;2022-07-23T14:31:14;6.25;;;5.40;;
26936;SDS011;14495;48.116;11.676;2022-07-23T14:33:39;7.55;;;5.05;;
26936;SDS011;14495;48.116;11.676;2022-07-23T14:36:04;7.68;;;5.38;;
26936;SDS011;14495;48.116;11.676;2022-07-23T14:38:30;7.68;;;5.10;;
26936;SDS011;14495;48.116;11.676;2022-07-23T14:40:56;5.60;;;4.90;;
26936;SDS011;14495;48.116;11.676;2022-07-23T14:43:22;6.75;;;5.05;;
26936;SDS011;14495;48.116;11.676;2022-07-23T14:45:47;7.07;;;4.78;;
26936;SDS011;14495;48.116;11.676;2022-07-23T14:48:13;6.35;;;5.32;;
26936;SDS011;14495;48.116;11.676;2022-07-23T14:50:38;6.28;;;5.40;;
26936;SDS011;14495;48.116;11.676;2022-07-23T14:53:04;6.75;;;5.22;;
26936;SDS011;14495;48.116;11.676;2022-07-23T14:55:32;6.63;;;5.65;;
26936;SDS011;14495;48.116;11.676;2022-07-23T14:57:58;8.05;;;5.38;;
26936;SDS011;14495;48.116;11.676;2022-07-23T15:00:24;7.00;;;5.43;;
26936;SDS011;14495;48.116;11.676;2022-07-23T15:02:52;5.45;;;4.90;;
26936;SDS011;14495;48.116;11.676;2022-07-23T15:05:18;7.70;;;5.72;;
26936;SDS011;14495;48.116;11.676;2022-07-23T15:07:43;9.73;;;5.50;;
26936;SDS011;14495;48.116;11.676;2022-07-23T15:10:09;7.25;;;5.68;;
26936;SDS011;14495;48.116;11.676;2022-07-23T15:12:34;8.95;;;7.15;;
26936;SDS011;14495;48.116;11.676;2022-07-23T15:14:59;6.43;;;5.43;;
26936;SDS011;14495;48.116;11.676;2022-07-23T15:17:25;7.75;;;5.90;;
26936;SDS011;14495;48.116;11.676;2022-07-23T15:19:50;6.95;;;6.25;;
26936;SDS011;14495;48.116;11.676;2022-07-23T15:22:16;8.20;;;5.80;;